sensor_id;sensor_type;location;lat;lon;timestamp;P1;durP1;ratioP1;P2;durP2;ratioP2
11348;SDS011;5729;43.570;27.826;2022-11-21T00:01:24;3.53;;;2.22;;
11348;SDS011;5729;43.570;27.826;2022-11-21T00:03:50;5.22;;;2.42;;
11348;SDS011;5729;43.570;27.826;2022-11-21T00:06:16;2.28;;;2.03;;
11348;SDS011;5729;43.570;27.826;2022-11-21T00:08:42;3.28;;;2.45;;
11348;SDS011;5729;43.570;27.826;2022-11-21T00:11:08;4.82;;;2.72;;
11348;SDS011;5729;43.570;27.826;2022-11-21T00:13:34;3.72;;;2.70;;
11348;SDS011;5729;43.570;27.826;2022-11-21T00:16:05;3.42;;;2.50;;
11348;SDS011;5729;43.570;27.826;2022-11-21T00:18:33;2.80;;;2.55;;
11348;SDS011;5729;43.570;27.826;2022-11-21T00:21:12;3.75;;;2.50;;
11348;SDS011;5729;43.570;27.826;2022-11-21T00:23:40;5.20;;;2.90;;
11348;SDS011;5729;43.570;27.826;2022-11-21T00:26:06;4.25;;;2.90;;
11348;SDS011;5729;43.570;27.826;2022-11-21T00:28:33;3.53;;;3.22;;
11348;SDS011;5729;43.570;27.826;2022-11-21T00:30:59;7.63;;;3.10;;
11348;SDS011;5729;43.570;27.826;2022-11-21T00:33:25;5.50;;;3.00;;
11348;SDS011;5729;43.570;27.826;2022-11-21T00:35:50;4.53;;;3.38;;
11348;SDS011;5729;43.570;27.826;2022-11-21T00:38:16;3.80;;;3.42;;
11348;SDS011;5729;43.570;27.826;2022-11-21T00:40:42;4.45;;;3.33;;
11348;SDS011;5729;43.570;27.826;2022-11-21T00:43:08;9.02;;;3.42;;
11348;SDS011;5729;43.570;27.826;2022-11-21T00:45:33;4.35;;;3.60;;
11348;SDS011;5729;43.570;27.826;2022-11-21T00:47:59;5.53;;;3.80;;
11348;SDS011;5729;43.570;27.826;2022-11-21T00:50:24;7.53;;;3.55;;
11348;SDS011;5729;43.570;27.826;2022-11-21T00:52:53;5.82;;;4.07;;
11348;SDS011;5729;43.570;27.826;2022-11-21T00:55:22;6.03;;;4.60;;
11348;SDS011;5729;43.570;27.826;2022-11-21T00:57:48;4.97;;;4.28;;
11348;SDS011;5729;43.570;27.826;2022-11-21T01:00:14;6.55;;;4.30;;
11348;SDS011;5729;43.570;27.826;2022-11-21T01:02:40;7.60;;;4.10;;
11348;SDS011;5729;43.570;27.826;2022-11-21T01:05:05;6.13;;;4.20;;
11348;SDS011;5729;43.570;27.826;2022-11-21T01:07:31;6.45;;;3.97;;
11348;SDS011;5729;43.570;27.826;2022-11-21T01:09:57;6.30;;;4.20;;
11348;SDS011;5729;43.570;27.826;2022-11-21T01:12:22;10.95;;;4.22;;
11348;SDS011;5729;43.570;27.826;2022-11-21T01:14:48;8.30;;;4.15;;
11348;SDS011;5729;43.570;27.826;2022-11-21T01:17:13;7.78;;;5.05;;
11348;SDS011;5729;43.570;27.826;2022-11-21T01:19:39;8.23;;;4.15;;
11348;SDS011;5729;43.570;27.826;2022-11-21T01:22:04;12.70;;;4.35;;
11348;SDS011;5729;43.570;27.826;2022-11-21T01:24:30;8.57;;;4.78;;
11348;SDS011;5729;43.570;27.826;2022-11-21T01:26:55;12.48;;;5.55;;
11348;SDS011;5729;43.570;27.826;2022-11-21T01:29:21;8.57;;;4.90;;
11348;SDS011;5729;43.570;27.826;2022-11-21T01:31:46;9.50;;;5.10;;
11348;SDS011;5729;43.570;27.826;2022-11-21T01:34:12;7.18;;;4.70;;
11348;SDS011;5729;43.570;27.826;2022-11-21T01:36:39;12.38;;;5.10;;
11348;SDS011;5729;43.570;27.826;2022-11-21T01:39:05;10.43;;;4.65;;
11348;SDS011;5729;43.570;27.826;2022-11-21T01:41:33;8.90;;;5.00;;
11348;SDS011;5729;43.570;27.826;2022-11-21T01:44:02;12.73;;;5.28;;
11348;SDS011;5729;43.570;27.826;2022-11-21T01:46:31;8.93;;;5.00;;
11348;SDS011;5729;43.570;27.826;2022-11-21T01:56:58;11.88;;;5.80;;
11348;SDS011;5729;43.570;27.826;2022-11-21T01:59:53;14.63;;;6.70;;
11348;SDS011;5729;43.570;27.826;2022-11-21T02:02:22;12.85;;;6.78;;
11348;SDS011;5729;43.570;27.826;2022-11-21T02:04:51;11.23;;;6.43;;
11348;SDS011;5729;43.570;27.826;2022-11-21T02:07:18;13.05;;;6.60;;
11348;SDS011;5729;43.570;27.826;2022-11-21T02:09:47;12.40;;;6.60;;
11348;SDS011;5729;43.570;27.826;2022-11-21T02:12:25;17.23;;;6.95;;
11348;SDS011;5729;43.570;27.826;2022-11-21T02:14:56;17.67;;;6.55;;
11348;SDS011;5729;43.570;27.826;2022-11-21T02:17:24;10.25;;;7.07;;
11348;SDS011;5729;43.570;27.826;2022-11-21T02:19:52;16.52;;;6.18;;
11348;SDS011;5729;43.570;27.826;2022-11-21T02:22:25;15.85;;;6.93;;
11348;SDS011;5729;43.570;27.826;2022-11-21T02:27:32;14.30;;;7.30;;
11348;SDS011;5729;43.570;27.826;2022-11-21T02:29:58;17.60;;;7.35;;
11348;SDS011;5729;43.570;27.826;2022-11-21T02:32:27;13.13;;;7.57;;
11348;SDS011;5729;43.570;27.826;2022-11-21T02:35:01;15.40;;;7.65;;
11348;SDS011;5729;43.570;27.826;2022-11-21T02:37:26;20.38;;;8.82;;
11348;SDS011;5729;43.570;27.826;2022-11-21T02:39:52;15.85;;;7.63;;
11348;SDS011;5729;43.570;27.826;2022-11-21T02:42:20;14.95;;;8.07;;
11348;SDS011;5729;43.570;27.826;2022-11-21T02:47:45;19.90;;;7.07;;
11348;SDS011;5729;43.570;27.826;2022-11-21T02:50:24;13.10;;;7.68;;
11348;SDS011;5729;43.570;27.826;2022-11-21T02:52:52;15.77;;;7.45;;
11348;SDS011;5729;43.570;27.826;2022-11-21T02:55:18;22.17;;;7.45;;
11348;SDS011;5729;43.570;27.826;2022-11-21T02:57:43;17.95;;;7.20;;
11348;SDS011;5729;43.570;27.826;2022-11-21T03:00:09;17.13;;;7.05;;
11348;SDS011;5729;43.570;27.826;2022-11-21T03:02:36;15.88;;;6.82;;
11348;SDS011;5729;43.570;27.826;2022-11-21T03:05:02;16.58;;;7.03;;
11348;SDS011;5729;43.570;27.826;2022-11-21T03:07:31;28.80;;;7.30;;
11348;SDS011;5729;43.570;27.826;2022-11-21T03:09:57;16.27;;;6.25;;
11348;SDS011;5729;43.570;27.826;2022-11-21T03:12:22;16.65;;;6.28;;
11348;SDS011;5729;43.570;27.826;2022-11-21T03:14:48;21.95;;;7.13;;
11348;SDS011;5729;43.570;27.826;2022-11-21T03:17:13;17.25;;;6.70;;
11348;SDS011;5729;43.570;27.826;2022-11-21T03:19:39;18.52;;;6.40;;
11348;SDS011;5729;43.570;27.826;2022-11-21T03:22:04;23.13;;;6.35;;
11348;SDS011;5729;43.570;27.826;2022-11-21T03:24:30;32.20;;;7.82;;
11348;SDS011;5729;43.570;27.826;2022-11-21T03:26:55;29.27;;;6.93;;
11348;SDS011;5729;43.570;27.826;2022-11-21T03:29:21;27.40;;;6.50;;
11348;SDS011;5729;43.570;27.826;2022-11-21T03:31:46;24.60;;;6.07;;
11348;SDS011;5729;43.570;27.826;2022-11-21T03:34:12;20.90;;;5.97;;
11348;SDS011;5729;43.570;27.826;2022-11-21T03:36:37;18.58;;;6.00;;
11348;SDS011;5729;43.570;27.826;2022-11-21T03:39:03;19.35;;;6.30;;
11348;SDS011;5729;43.570;27.826;2022-11-21T03:41:28;20.00;;;6.22;;
11348;SDS011;5729;43.570;27.826;2022-11-21T03:43:57;17.80;;;5.65;;
11348;SDS011;5729;43.570;27.826;2022-11-21T03:46:28;16.85;;;6.28;;
11348;SDS011;5729;43.570;27.826;2022-11-21T03:48:54;18.38;;;6.85;;
11348;SDS011;5729;43.570;27.826;2022-11-21T03:51:20;24.05;;;6.32;;
11348;SDS011;5729;43.570;27.826;2022-11-21T03:53:46;22.05;;;5.45;;
11348;SDS011;5729;43.570;27.826;2022-11-21T03:56:12;21.95;;;5.35;;
11348;SDS011;5729;43.570;27.826;2022-11-21T03:58:38;18.10;;;5.75;;
11348;SDS011;5729;43.570;27.826;2022-11-21T04:01:03;22.40;;;6.15;;
11348;SDS011;5729;43.570;27.826;2022-11-21T04:03:29;20.30;;;5.75;;
11348;SDS011;5729;43.570;27.826;2022-11-21T04:05:55;20.90;;;6.65;;
11348;SDS011;5729;43.570;27.826;2022-11-21T04:08:20;18.42;;;6.95;;
11348;SDS011;5729;43.570;27.826;2022-11-21T04:10:51;19.92;;;5.70;;
11348;SDS011;5729;43.570;27.826;2022-11-21T04:13:17;24.98;;;6.10;;
11348;SDS011;5729;43.570;27.826;2022-11-21T04:15:43;21.70;;;5.97;;
11348;SDS011;5729;43.570;27.826;2022-11-21T04:18:09;29.13;;;6.72;;
11348;SDS011;5729;43.570;27.826;2022-11-21T04:20:35;21.05;;;5.47;;
11348;SDS011;5729;43.570;27.826;2022-11-21T04:23:01;23.67;;;6.03;;
11348;SDS011;5729;43.570;27.826;2022-11-21T04:25:26;21.67;;;6.65;;
11348;SDS011;5729;43.570;27.826;2022-11-21T04:27:58;23.80;;;6.05;;
11348;SDS011;5729;43.570;27.826;2022-11-21T04:30:24;26.75;;;6.60;;
11348;SDS011;5729;43.570;27.826;2022-11-21T04:32:50;22.90;;;6.05;;
11348;SDS011;5729;43.570;27.826;2022-11-21T04:35:19;21.17;;;5.88;;
11348;SDS011;5729;43.570;27.826;2022-11-21T04:37:46;24.38;;;5.63;;
11348;SDS011;5729;43.570;27.826;2022-11-21T04:40:11;32.45;;;6.88;;
11348;SDS011;5729;43.570;27.826;2022-11-21T04:42:41;32.17;;;6.47;;
11348;SDS011;5729;43.570;27.826;2022-11-21T04:45:07;23.23;;;5.07;;
11348;SDS011;5729;43.570;27.826;2022-11-21T04:47:37;24.65;;;7.05;;
11348;SDS011;5729;43.570;27.826;2022-11-21T04:50:04;26.45;;;6.07;;
11348;SDS011;5729;43.570;27.826;2022-11-21T04:52:30;25.25;;;6.10;;
11348;SDS011;5729;43.570;27.826;2022-11-21T04:54:55;32.28;;;6.97;;
11348;SDS011;5729;43.570;27.826;2022-11-21T04:57:21;33.90;;;6.57;;
11348;SDS011;5729;43.570;27.826;2022-11-21T04:59:46;27.35;;;6.63;;
11348;SDS011;5729;43.570;27.826;2022-11-21T05:02:12;29.25;;;6.07;;
11348;SDS011;5729;43.570;27.826;2022-11-21T05:04:37;24.88;;;6.18;;
11348;SDS011;5729;43.570;27.826;2022-11-21T05:07:03;31.20;;;6.15;;
11348;SDS011;5729;43.570;27.826;2022-11-21T05:09:29;33.65;;;6.80;;
11348;SDS011;5729;43.570;27.826;2022-11-21T05:11:54;33.30;;;5.97;;
11348;SDS011;5729;43.570;27.826;2022-11-21T05:14:38;31.83;;;5.85;;
11348;SDS011;5729;43.570;27.826;2022-11-21T05:17:03;24.60;;;6.28;;
11348;SDS011;5729;43.570;27.826;2022-11-21T05:19:29;36.92;;;6.72;;
11348;SDS011;5729;43.570;27.826;2022-11-21T05:21:54;25.55;;;6.38;;
11348;SDS011;5729;43.570;27.826;2022-11-21T05:24:20;25.70;;;7.68;;
11348;SDS011;5729;43.570;27.826;2022-11-21T05:26:46;26.10;;;5.97;;
11348;SDS011;5729;43.570;27.826;2022-11-21T05:29:11;25.02;;;5.93;;
11348;SDS011;5729;43.570;27.826;2022-11-21T05:31:37;24.23;;;5.72;;
11348;SDS011;5729;43.570;27.826;2022-11-21T05:34:03;35.80;;;6.28;;
11348;SDS011;5729;43.570;27.826;2022-11-21T05:36:28;28.30;;;5.85;;
11348;SDS011;5729;43.570;27.826;2022-11-21T05:38:54;29.48;;;5.88;;
11348;SDS011;5729;43.570;27.826;2022-11-21T05:41:19;32.72;;;6.78;;
11348;SDS011;5729;43.570;27.826;2022-11-21T05:43:45;25.65;;;5.55;;
11348;SDS011;5729;43.570;27.826;2022-11-21T05:46:14;26.92;;;6.13;;
11348;SDS011;5729;43.570;27.826;2022-11-21T05:48:42;39.00;;;6.30;;
11348;SDS011;5729;43.570;27.826;2022-11-21T05:51:07;24.73;;;6.10;;
11348;SDS011;5729;43.570;27.826;2022-11-21T05:53:33;33.70;;;6.47;;
11348;SDS011;5729;43.570;27.826;2022-11-21T05:56:03;30.52;;;6.80;;
11348;SDS011;5729;43.570;27.826;2022-11-21T05:58:31;26.60;;;6.72;;
11348;SDS011;5729;43.570;27.826;2022-11-21T06:00:57;19.08;;;6.18;;
11348;SDS011;5729;43.570;27.826;2022-11-21T06:03:24;25.75;;;6.85;;
11348;SDS011;5729;43.570;27.826;2022-11-21T06:06:16;28.60;;;6.97;;
11348;SDS011;5729;43.570;27.826;2022-11-21T06:08:42;32.38;;;6.25;;
11348;SDS011;5729;43.570;27.826;2022-11-21T06:11:10;20.55;;;7.00;;
11348;SDS011;5729;43.570;27.826;2022-11-21T06:13:39;19.85;;;5.53;;
11348;SDS011;5729;43.570;27.826;2022-11-21T06:16:06;22.88;;;5.25;;
11348;SDS011;5729;43.570;27.826;2022-11-21T06:18:38;35.80;;;6.20;;
11348;SDS011;5729;43.570;27.826;2022-11-21T06:21:05;31.73;;;6.78;;
11348;SDS011;5729;43.570;27.826;2022-11-21T06:23:32;36.80;;;6.78;;
11348;SDS011;5729;43.570;27.826;2022-11-21T06:25:58;24.30;;;5.15;;
11348;SDS011;5729;43.570;27.826;2022-11-21T06:28:29;21.23;;;8.27;;
11348;SDS011;5729;43.570;27.826;2022-11-21T06:31:00;24.85;;;5.93;;
11348;SDS011;5729;43.570;27.826;2022-11-21T06:33:27;24.42;;;5.97;;
11348;SDS011;5729;43.570;27.826;2022-11-21T06:35:52;30.73;;;6.63;;
11348;SDS011;5729;43.570;27.826;2022-11-21T06:38:18;36.15;;;7.18;;
11348;SDS011;5729;43.570;27.826;2022-11-21T06:40:43;26.33;;;6.07;;
11348;SDS011;5729;43.570;27.826;2022-11-21T06:43:09;42.70;;;7.10;;
11348;SDS011;5729;43.570;27.826;2022-11-21T06:45:34;28.92;;;6.10;;
11348;SDS011;5729;43.570;27.826;2022-11-21T06:48:00;28.10;;;5.93;;
11348;SDS011;5729;43.570;27.826;2022-11-21T06:50:27;27.00;;;5.97;;
11348;SDS011;5729;43.570;27.826;2022-11-21T06:52:56;20.20;;;5.63;;
11348;SDS011;5729;43.570;27.826;2022-11-21T06:55:22;25.10;;;6.05;;
11348;SDS011;5729;43.570;27.826;2022-11-21T06:57:49;26.55;;;5.38;;
11348;SDS011;5729;43.570;27.826;2022-11-21T07:00:15;23.77;;;4.85;;
11348;SDS011;5729;43.570;27.826;2022-11-21T07:02:40;16.88;;;5.65;;
11348;SDS011;5729;43.570;27.826;2022-11-21T07:05:06;26.08;;;5.43;;
11348;SDS011;5729;43.570;27.826;2022-11-21T07:07:32;23.27;;;5.30;;
11348;SDS011;5729;43.570;27.826;2022-11-21T07:09:57;26.23;;;5.85;;
11348;SDS011;5729;43.570;27.826;2022-11-21T07:12:23;26.25;;;5.28;;
11348;SDS011;5729;43.570;27.826;2022-11-21T07:15:07;24.15;;;5.80;;
11348;SDS011;5729;43.570;27.826;2022-11-21T07:17:33;20.38;;;5.32;;
11348;SDS011;5729;43.570;27.826;2022-11-21T07:19:58;24.13;;;5.20;;
11348;SDS011;5729;43.570;27.826;2022-11-21T07:22:23;23.00;;;5.35;;
11348;SDS011;5729;43.570;27.826;2022-11-21T07:24:49;22.23;;;5.05;;
11348;SDS011;5729;43.570;27.826;2022-11-21T07:27:14;16.58;;;5.28;;
11348;SDS011;5729;43.570;27.826;2022-11-21T07:29:40;30.52;;;5.90;;
11348;SDS011;5729;43.570;27.826;2022-11-21T07:32:05;19.77;;;5.65;;
11348;SDS011;5729;43.570;27.826;2022-11-21T07:34:31;29.42;;;4.70;;
11348;SDS011;5729;43.570;27.826;2022-11-21T07:36:56;20.33;;;4.32;;
11348;SDS011;5729;43.570;27.826;2022-11-21T07:39:21;20.77;;;5.28;;
11348;SDS011;5729;43.570;27.826;2022-11-21T07:41:47;18.33;;;4.75;;
11348;SDS011;5729;43.570;27.826;2022-11-21T07:44:12;15.40;;;4.30;;
11348;SDS011;5729;43.570;27.826;2022-11-21T07:46:38;20.48;;;4.55;;
11348;SDS011;5729;43.570;27.826;2022-11-21T07:49:03;17.10;;;3.88;;
11348;SDS011;5729;43.570;27.826;2022-11-21T07:51:29;19.77;;;4.00;;
11348;SDS011;5729;43.570;27.826;2022-11-21T07:53:54;12.30;;;3.85;;
11348;SDS011;5729;43.570;27.826;2022-11-21T07:56:20;12.15;;;3.28;;
11348;SDS011;5729;43.570;27.826;2022-11-21T07:58:45;19.60;;;4.10;;
11348;SDS011;5729;43.570;27.826;2022-11-21T08:01:11;13.82;;;3.95;;
11348;SDS011;5729;43.570;27.826;2022-11-21T08:03:36;17.65;;;4.05;;
11348;SDS011;5729;43.570;27.826;2022-11-21T08:06:02;25.02;;;4.47;;
11348;SDS011;5729;43.570;27.826;2022-11-21T08:08:29;21.13;;;4.28;;
11348;SDS011;5729;43.570;27.826;2022-11-21T08:10:55;13.13;;;4.00;;
11348;SDS011;5729;43.570;27.826;2022-11-21T08:13:20;15.98;;;4.20;;
11348;SDS011;5729;43.570;27.826;2022-11-21T08:15:46;23.50;;;4.20;;
11348;SDS011;5729;43.570;27.826;2022-11-21T08:18:15;17.90;;;3.80;;
11348;SDS011;5729;43.570;27.826;2022-11-21T08:20:44;19.85;;;4.40;;
11348;SDS011;5729;43.570;27.826;2022-11-21T08:23:10;21.17;;;4.35;;
11348;SDS011;5729;43.570;27.826;2022-11-21T08:25:36;19.77;;;4.38;;
11348;SDS011;5729;43.570;27.826;2022-11-21T08:28:03;15.32;;;4.30;;
11348;SDS011;5729;43.570;27.826;2022-11-21T08:30:30;18.13;;;4.03;;
11348;SDS011;5729;43.570;27.826;2022-11-21T08:32:56;27.10;;;4.65;;
11348;SDS011;5729;43.570;27.826;2022-11-21T08:35:23;21.27;;;4.50;;
11348;SDS011;5729;43.570;27.826;2022-11-21T08:37:54;24.75;;;3.88;;
11348;SDS011;5729;43.570;27.826;2022-11-21T08:40:23;26.50;;;4.32;;
11348;SDS011;5729;43.570;27.826;2022-11-21T08:43:00;21.92;;;5.25;;
11348;SDS011;5729;43.570;27.826;2022-11-21T08:45:30;25.35;;;5.03;;
11348;SDS011;5729;43.570;27.826;2022-11-21T08:47:56;28.10;;;4.70;;
11348;SDS011;5729;43.570;27.826;2022-11-21T08:50:22;22.50;;;4.38;;
11348;SDS011;5729;43.570;27.826;2022-11-21T08:52:48;14.88;;;4.20;;
11348;SDS011;5729;43.570;27.826;2022-11-21T08:55:14;15.27;;;4.25;;
11348;SDS011;5729;43.570;27.826;2022-11-21T08:57:40;25.30;;;4.40;;
11348;SDS011;5729;43.570;27.826;2022-11-21T09:00:07;24.02;;;4.38;;
11348;SDS011;5729;43.570;27.826;2022-11-21T09:02:34;18.73;;;4.80;;
11348;SDS011;5729;43.570;27.826;2022-11-21T09:05:00;24.65;;;4.32;;
11348;SDS011;5729;43.570;27.826;2022-11-21T09:07:26;25.63;;;5.38;;
11348;SDS011;5729;43.570;27.826;2022-11-21T09:09:51;22.15;;;4.47;;
11348;SDS011;5729;43.570;27.826;2022-11-21T09:12:17;18.00;;;4.47;;
11348;SDS011;5729;43.570;27.826;2022-11-21T09:14:42;18.05;;;4.30;;
11348;SDS011;5729;43.570;27.826;2022-11-21T09:17:26;25.52;;;5.15;;
11348;SDS011;5729;43.570;27.826;2022-11-21T09:20:10;29.15;;;5.85;;
11348;SDS011;5729;43.570;27.826;2022-11-21T09:22:35;21.33;;;4.45;;
11348;SDS011;5729;43.570;27.826;2022-11-21T09:25:01;24.75;;;4.32;;
11348;SDS011;5729;43.570;27.826;2022-11-21T09:27:26;21.35;;;4.35;;
11348;SDS011;5729;43.570;27.826;2022-11-21T09:29:52;26.38;;;3.65;;
11348;SDS011;5729;43.570;27.826;2022-11-21T09:32:18;21.52;;;5.13;;
11348;SDS011;5729;43.570;27.826;2022-11-21T09:34:43;21.35;;;3.92;;
11348;SDS011;5729;43.570;27.826;2022-11-21T09:37:09;22.25;;;3.47;;
11348;SDS011;5729;43.570;27.826;2022-11-21T09:39:34;20.60;;;4.25;;
11348;SDS011;5729;43.570;27.826;2022-11-21T09:47:31;19.98;;;3.47;;
11348;SDS011;5729;43.570;27.826;2022-11-21T09:52:37;19.17;;;4.20;;
11348;SDS011;5729;43.570;27.826;2022-11-21T09:55:26;22.30;;;3.90;;
11348;SDS011;5729;43.570;27.826;2022-11-21T09:57:52;18.92;;;4.00;;
11348;SDS011;5729;43.570;27.826;2022-11-21T10:00:20;17.98;;;3.85;;
11348;SDS011;5729;43.570;27.826;2022-11-21T10:02:48;25.75;;;4.28;;
11348;SDS011;5729;43.570;27.826;2022-11-21T10:05:15;17.40;;;4.75;;
11348;SDS011;5729;43.570;27.826;2022-11-21T10:07:45;14.95;;;3.70;;
11348;SDS011;5729;43.570;27.826;2022-11-21T10:10:25;20.10;;;3.83;;
11348;SDS011;5729;43.570;27.826;2022-11-21T10:15:57;19.67;;;4.05;;
11348;SDS011;5729;43.570;27.826;2022-11-21T10:21:17;16.20;;;3.85;;
11348;SDS011;5729;43.570;27.826;2022-11-21T10:32:24;21.98;;;4.15;;
11348;SDS011;5729;43.570;27.826;2022-11-21T10:34:57;17.33;;;3.92;;
11348;SDS011;5729;43.570;27.826;2022-11-21T10:39:54;14.45;;;2.88;;
11348;SDS011;5729;43.570;27.826;2022-11-21T10:45:04;21.23;;;4.00;;
11348;SDS011;5729;43.570;27.826;2022-11-21T10:47:43;22.27;;;4.10;;
11348;SDS011;5729;43.570;27.826;2022-11-21T10:53:26;19.17;;;5.07;;
11348;SDS011;5729;43.570;27.826;2022-11-21T10:56:12;20.17;;;4.38;;
11348;SDS011;5729;43.570;27.826;2022-11-21T10:58:48;20.88;;;4.72;;
11348;SDS011;5729;43.570;27.826;2022-11-21T11:01:25;11.75;;;3.15;;
11348;SDS011;5729;43.570;27.826;2022-11-21T11:06:33;17.27;;;3.45;;
11348;SDS011;5729;43.570;27.826;2022-11-21T11:08:59;23.20;;;4.50;;
11348;SDS011;5729;43.570;27.826;2022-11-21T11:11:25;21.00;;;3.63;;
11348;SDS011;5729;43.570;27.826;2022-11-21T11:16:25;14.00;;;3.47;;
11348;SDS011;5729;43.570;27.826;2022-11-21T11:21:28;22.77;;;4.63;;
11348;SDS011;5729;43.570;27.826;2022-11-21T11:24:26;18.23;;;3.58;;
11348;SDS011;5729;43.570;27.826;2022-11-21T11:27:00;13.90;;;2.97;;
11348;SDS011;5729;43.570;27.826;2022-11-21T11:29:30;15.57;;;3.60;;
11348;SDS011;5729;43.570;27.826;2022-11-21T11:32:00;19.00;;;3.38;;
11348;SDS011;5729;43.570;27.826;2022-11-21T11:34:39;16.92;;;2.97;;
11348;SDS011;5729;43.570;27.826;2022-11-21T11:37:40;12.35;;;2.80;;
11348;SDS011;5729;43.570;27.826;2022-11-21T11:40:24;15.32;;;2.40;;
11348;SDS011;5729;43.570;27.826;2022-11-21T11:48:51;7.97;;;3.60;;
11348;SDS011;5729;43.570;27.826;2022-11-21T11:53:54;8.73;;;4.72;;
11348;SDS011;5729;43.570;27.826;2022-11-21T11:56:26;7.60;;;4.35;;
11348;SDS011;5729;43.570;27.826;2022-11-21T12:02:27;6.55;;;4.80;;
11348;SDS011;5729;43.570;27.826;2022-11-21T12:04:31;5.63;;;4.22;;
11348;SDS011;5729;43.570;27.826;2022-11-21T12:07:11;7.40;;;4.47;;
11348;SDS011;5729;43.570;27.826;2022-11-21T12:10:03;7.72;;;4.40;;
11348;SDS011;5729;43.570;27.826;2022-11-21T12:12:40;6.57;;;4.85;;
11348;SDS011;5729;43.570;27.826;2022-11-21T12:15:16;11.80;;;5.70;;
11348;SDS011;5729;43.570;27.826;2022-11-21T12:28:29;11.40;;;5.90;;
11348;SDS011;5729;43.570;27.826;2022-11-21T12:36:45;8.25;;;5.15;;
11348;SDS011;5729;43.570;27.826;2022-11-21T12:39:26;6.32;;;4.95;;
11348;SDS011;5729;43.570;27.826;2022-11-21T12:54:01;7.90;;;6.63;;
11348;SDS011;5729;43.570;27.826;2022-11-21T12:56:56;8.45;;;5.75;;
11348;SDS011;5729;43.570;27.826;2022-11-21T12:59:32;8.95;;;7.03;;
11348;SDS011;5729;43.570;27.826;2022-11-21T13:02:32;8.57;;;7.43;;
11348;SDS011;5729;43.570;27.826;2022-11-21T13:04:59;8.32;;;6.07;;
11348;SDS011;5729;43.570;27.826;2022-11-21T13:07:27;6.90;;;6.20;;
11348;SDS011;5729;43.570;27.826;2022-11-21T13:09:55;7.32;;;5.82;;
11348;SDS011;5729;43.570;27.826;2022-11-21T13:18:27;4.93;;;4.43;;
11348;SDS011;5729;43.570;27.826;2022-11-21T13:20:57;4.80;;;4.40;;
11348;SDS011;5729;43.570;27.826;2022-11-21T13:23:41;4.82;;;4.32;;
11348;SDS011;5729;43.570;27.826;2022-11-21T13:28:50;5.93;;;5.32;;
11348;SDS011;5729;43.570;27.826;2022-11-21T13:31:31;12.57;;;11.27;;
11348;SDS011;5729;43.570;27.826;2022-11-21T13:33:58;19.75;;;13.77;;
11348;SDS011;5729;43.570;27.826;2022-11-21T13:52:27;10.38;;;6.72;;
11348;SDS011;5729;43.570;27.826;2022-11-21T14:04:13;9.57;;;7.90;;
11348;SDS011;5729;43.570;27.826;2022-11-21T14:07:21;9.00;;;6.93;;
11348;SDS011;5729;43.570;27.826;2022-11-21T14:09:50;8.90;;;7.13;;
11348;SDS011;5729;43.570;27.826;2022-11-21T14:12:30;9.88;;;5.65;;
11348;SDS011;5729;43.570;27.826;2022-11-21T14:22:52;5.55;;;3.95;;
11348;SDS011;5729;43.570;27.826;2022-11-21T14:25:19;4.55;;;3.83;;
11348;SDS011;5729;43.570;27.826;2022-11-21T14:27:47;7.88;;;4.40;;
11348;SDS011;5729;43.570;27.826;2022-11-21T14:30:35;5.50;;;4.25;;
11348;SDS011;5729;43.570;27.826;2022-11-21T14:35:47;20.60;;;13.77;;
11348;SDS011;5729;43.570;27.826;2022-11-21T14:38:23;14.77;;;8.00;;
11348;SDS011;5729;43.570;27.826;2022-11-21T14:40:50;11.18;;;7.53;;
11348;SDS011;5729;43.570;27.826;2022-11-21T14:43:45;16.08;;;9.05;;
11348;SDS011;5729;43.570;27.826;2022-11-21T14:46:13;10.43;;;8.18;;
11348;SDS011;5729;43.570;27.826;2022-11-21T14:48:40;12.25;;;9.23;;
11348;SDS011;5729;43.570;27.826;2022-11-21T14:51:10;11.13;;;7.63;;
11348;SDS011;5729;43.570;27.826;2022-11-21T14:53:42;6.97;;;4.35;;
11348;SDS011;5729;43.570;27.826;2022-11-21T14:56:32;8.75;;;4.95;;
11348;SDS011;5729;43.570;27.826;2022-11-21T14:59:00;6.15;;;4.50;;
11348;SDS011;5729;43.570;27.826;2022-11-21T15:01:27;5.63;;;4.57;;
11348;SDS011;5729;43.570;27.826;2022-11-21T15:06:27;6.80;;;4.70;;
11348;SDS011;5729;43.570;27.826;2022-11-21T15:09:00;10.07;;;6.95;;
11348;SDS011;5729;43.570;27.826;2022-11-21T15:14:01;7.68;;;4.90;;
11348;SDS011;5729;43.570;27.826;2022-11-21T15:16:31;9.43;;;5.80;;
11348;SDS011;5729;43.570;27.826;2022-11-21T15:18:57;11.60;;;5.68;;
11348;SDS011;5729;43.570;27.826;2022-11-21T15:21:23;8.20;;;6.03;;
11348;SDS011;5729;43.570;27.826;2022-11-21T15:23:48;8.77;;;4.75;;
11348;SDS011;5729;43.570;27.826;2022-11-21T15:26:48;8.57;;;6.38;;
11348;SDS011;5729;43.570;27.826;2022-11-21T15:29:19;4.45;;;4.05;;
11348;SDS011;5729;43.570;27.826;2022-11-21T15:32:03;4.45;;;4.00;;
11348;SDS011;5729;43.570;27.826;2022-11-21T15:34:29;9.40;;;6.25;;
11348;SDS011;5729;43.570;27.826;2022-11-21T15:37:02;13.15;;;11.55;;
11348;SDS011;5729;43.570;27.826;2022-11-21T15:39:44;13.15;;;9.48;;
11348;SDS011;5729;43.570;27.826;2022-11-21T15:42:33;16.40;;;10.90;;
11348;SDS011;5729;43.570;27.826;2022-11-21T15:45:02;13.95;;;9.55;;
11348;SDS011;5729;43.570;27.826;2022-11-21T15:47:45;9.63;;;7.80;;
11348;SDS011;5729;43.570;27.826;2022-11-21T15:50:10;8.40;;;6.10;;
11348;SDS011;5729;43.570;27.826;2022-11-21T15:52:45;6.00;;;4.82;;
11348;SDS011;5729;43.570;27.826;2022-11-21T15:55:16;12.82;;;9.05;;
11348;SDS011;5729;43.570;27.826;2022-11-21T15:57:44;5.50;;;5.00;;
11348;SDS011;5729;43.570;27.826;2022-11-21T16:00:10;15.98;;;10.43;;
11348;SDS011;5729;43.570;27.826;2022-11-21T16:02:36;14.88;;;9.25;;
11348;SDS011;5729;43.570;27.826;2022-11-21T16:05:01;10.95;;;7.70;;
11348;SDS011;5729;43.570;27.826;2022-11-21T16:07:27;11.90;;;8.57;;
11348;SDS011;5729;43.570;27.826;2022-11-21T16:09:52;10.00;;;6.75;;
11348;SDS011;5729;43.570;27.826;2022-11-21T16:12:19;12.48;;;9.57;;
11348;SDS011;5729;43.570;27.826;2022-11-21T16:14:45;10.32;;;6.18;;
11348;SDS011;5729;43.570;27.826;2022-11-21T16:17:11;10.85;;;6.55;;
11348;SDS011;5729;43.570;27.826;2022-11-21T16:19:38;6.28;;;5.28;;
11348;SDS011;5729;43.570;27.826;2022-11-21T16:22:03;7.25;;;5.05;;
11348;SDS011;5729;43.570;27.826;2022-11-21T16:24:28;6.10;;;5.28;;
11348;SDS011;5729;43.570;27.826;2022-11-21T16:26:54;7.57;;;5.35;;
11348;SDS011;5729;43.570;27.826;2022-11-21T16:29:21;9.80;;;7.65;;
11348;SDS011;5729;43.570;27.826;2022-11-21T16:31:46;24.20;;;20.48;;
11348;SDS011;5729;43.570;27.826;2022-11-21T16:34:17;13.30;;;9.63;;
11348;SDS011;5729;43.570;27.826;2022-11-21T16:36:43;27.60;;;21.20;;
11348;SDS011;5729;43.570;27.826;2022-11-21T16:39:08;16.77;;;12.82;;
11348;SDS011;5729;43.570;27.826;2022-11-21T16:41:34;21.42;;;16.05;;
11348;SDS011;5729;43.570;27.826;2022-11-21T16:43:59;12.45;;;8.57;;
11348;SDS011;5729;43.570;27.826;2022-11-21T16:46:25;10.23;;;7.65;;
11348;SDS011;5729;43.570;27.826;2022-11-21T16:48:57;13.85;;;8.30;;
11348;SDS011;5729;43.570;27.826;2022-11-21T16:51:24;18.52;;;13.20;;
11348;SDS011;5729;43.570;27.826;2022-11-21T16:53:50;8.75;;;7.88;;
11348;SDS011;5729;43.570;27.826;2022-11-21T16:56:16;5.90;;;5.38;;
11348;SDS011;5729;43.570;27.826;2022-11-21T16:58:41;12.73;;;9.68;;
11348;SDS011;5729;43.570;27.826;2022-11-21T17:01:14;6.43;;;5.75;;
11348;SDS011;5729;43.570;27.826;2022-11-21T17:03:42;7.13;;;6.45;;
11348;SDS011;5729;43.570;27.826;2022-11-21T17:06:10;9.15;;;8.00;;
11348;SDS011;5729;43.570;27.826;2022-11-21T17:08:37;6.97;;;6.28;;
11348;SDS011;5729;43.570;27.826;2022-11-21T17:11:18;7.68;;;6.95;;